createdAt,value
2018-04-22T00:00:24.882Z,48.93
2018-04-22T00:02:53.734Z,48.92
2018-04-22T00:05:22.448Z,48.89
2018-04-22T00:07:50.559Z,48.84
2018-04-22T00:10:19.019Z,48.59
2018-04-22T00:12:47.830Z,48.61
2018-04-22T00:15:15.969Z,48.67
2018-04-22T00:17:44.056Z,48.87
2018-04-22T00:20:12.476Z,48.44
2018-04-22T00:22:40.578Z,48.45
2018-04-22T00:25:09.559Z,48.25
2018-04-22T00:27:37.652Z,48.51
2018-04-22T00:30:05.776Z,48.44
2018-04-22T00:32:33.891Z,48.61
2018-04-22T00:35:02.006Z,48.28
2018-04-22T00:37:30.099Z,47.61
2018-04-22T00:39:58.569Z,47.67
2018-04-22T00:42:26.679Z,47.87
2018-04-22T00:44:54.764Z,48.15
2018-04-22T00:47:22.881Z,48.21
2018-04-22T00:49:50.988Z,48.27
2018-04-22T00:52:19.544Z,48.08
2018-04-22T00:54:47.649Z,47.94
2018-04-22T00:57:15.785Z,48.08
2018-04-22T00:59:43.923Z,48.29
2018-04-22T01:02:12.009Z,48.57
2018-04-22T01:04:45.714Z,48.85
2018-04-22T01:07:13.798Z,48.89
2018-04-22T01:09:41.876Z,48.78
2018-04-22T01:12:09.980Z,48.82
2018-04-22T01:14:38.070Z,48.63
2018-04-22T01:17:06.166Z,48.77
2018-04-22T01:19:34.356Z,48.91
2018-04-22T01:22:02.435Z,49.19
2018-04-22T01:24:30.543Z,49.04
2018-04-22T01:26:58.667Z,49.09
2018-04-22T01:29:26.809Z,49.13
2018-04-22T01:31:54.909Z,49.23
2018-04-22T01:34:29.204Z,49.21
2018-04-22T01:36:57.287Z,49.25
2018-04-22T01:39:25.442Z,49.32
2018-04-22T01:41:53.533Z,49.47
2018-04-22T01:44:22.247Z,49.50
2018-04-22T01:46:50.713Z,49.44
2018-04-22T01:49:19.253Z,49.71
2018-04-22T01:51:47.359Z,49.97
2018-04-22T01:54:15.434Z,50.10
2018-04-22T01:56:43.541Z,50.29
2018-04-22T01:59:13.363Z,50.59
2018-04-22T02:01:41.448Z,50.76
2018-04-22T02:04:09.777Z,50.94
2018-04-22T02:06:38.397Z,51.00
2018-04-22T02:09:06.509Z,51.33
2018-04-22T02:11:34.615Z,51.62
2018-04-22T02:14:02.710Z,52.03
2018-04-22T02:16:30.805Z,52.36
2018-04-22T02:18:58.936Z,52.34
2018-04-22T02:21:27.014Z,52.39
2018-04-22T02:23:55.128Z,52.61
2018-04-22T02:26:23.211Z,52.66
2018-04-22T02:28:51.309Z,52.70
2018-04-22T02:31:19.410Z,52.78
2018-04-22T02:33:47.499Z,52.71
2018-04-22T02:36:15.594Z,52.92
2018-04-22T02:38:43.711Z,52.98
2018-04-22T02:41:11.802Z,52.95
2018-04-22T02:43:39.973Z,52.90
2018-04-22T02:46:07.999Z,53.14
2018-04-22T02:48:37.454Z,53.06
2018-04-22T02:51:05.663Z,53.02
2018-04-22T02:53:33.792Z,53.12
2018-04-22T02:56:01.901Z,53.12
2018-04-22T02:58:29.988Z,53.08
2018-04-22T03:00:58.112Z,52.96
2018-04-22T03:03:26.235Z,52.92
2018-04-22T03:18:59.450Z,54.86
2018-04-22T03:21:27.554Z,54.87
2018-04-22T03:23:55.656Z,55.08
2018-04-22T03:26:23.763Z,55.21
2018-04-22T03:28:51.847Z,55.34
2018-04-22T03:31:20.033Z,55.21
2018-04-22T03:33:48.210Z,55.23
2018-04-22T03:36:17.427Z,55.67
2018-04-22T03:38:45.533Z,55.50
2018-04-22T03:41:13.633Z,55.21
2018-04-22T03:43:41.744Z,55.15
2018-04-22T03:46:09.853Z,55.05
2018-04-22T03:48:37.998Z,54.96
2018-04-22T03:51:06.107Z,54.92
2018-04-22T03:53:34.218Z,54.79
2018-04-22T03:56:02.313Z,54.89
2018-04-22T03:58:30.410Z,55.01
2018-04-22T04:00:59.492Z,54.87
2018-04-22T04:03:27.579Z,55.19
2018-04-22T04:05:56.507Z,55.23
2018-04-22T04:08:24.626Z,55.16
2018-04-22T04:10:52.782Z,55.29
2018-04-22T04:13:20.873Z,55.40
2018-04-22T04:15:49.830Z,55.28
2018-04-22T04:21:44.040Z,55.39
2018-04-22T04:27:45.112Z,55.38
2018-04-22T04:30:13.214Z,55.56
2018-04-22T04:35:24.734Z,55.60
2018-04-22T04:37:53.843Z,55.54
2018-04-22T04:50:06.947Z,57.13
2018-04-22T04:52:35.043Z,57.46
2018-04-22T04:55:03.156Z,57.27
2018-04-22T04:57:31.339Z,57.21
2018-04-22T04:59:59.842Z,56.93
2018-04-22T05:02:27.913Z,57.36
2018-04-22T05:04:56.022Z,57.48
2018-04-22T05:07:24.128Z,57.31
2018-04-22T05:09:52.222Z,56.89
2018-04-22T05:12:20.345Z,57.63
2018-04-22T05:14:49.395Z,57.67
2018-04-22T05:17:22.972Z,57.29
2018-04-22T05:19:56.671Z,57.81
2018-04-22T05:22:30.260Z,57.71
2018-04-22T05:24:58.376Z,57.92
2018-04-22T05:27:26.504Z,57.90
2018-04-22T05:29:54.589Z,58.53
2018-04-22T05:32:22.694Z,58.86
2018-04-22T05:34:50.778Z,58.14
2018-04-22T05:37:18.880Z,57.62
2018-04-22T05:49:38.336Z,57.19
2018-04-22T05:52:06.423Z,56.98
2018-04-22T05:54:34.542Z,56.69
2018-04-22T05:57:03.314Z,56.65
2018-04-22T05:59:31.417Z,57.21
2018-04-22T06:01:59.506Z,57.73
2018-04-22T06:04:27.647Z,57.71
2018-04-22T06:06:55.840Z,57.11
2018-04-22T06:09:23.898Z,56.86
2018-04-22T06:24:52.015Z,56.36
2018-04-22T06:27:21.264Z,56.70
2018-04-22T06:29:49.331Z,56.49
2018-04-22T06:32:17.445Z,56.54
2018-04-22T06:34:45.536Z,57.22
2018-04-22T06:37:13.934Z,56.51
2018-04-22T06:39:42.173Z,56.96
2018-04-22T06:42:10.300Z,56.74
2018-04-22T06:44:38.683Z,57.09
2018-04-22T06:47:06.771Z,56.64
2018-04-22T06:49:34.919Z,56.76
2018-04-22T06:52:02.987Z,56.48
2018-04-22T06:54:31.083Z,56.84
2018-04-22T06:56:59.184Z,57.51
2018-04-22T06:59:27.583Z,56.33
2018-04-22T07:01:55.699Z,56.24
2018-04-22T07:04:23.815Z,56.20
2018-04-22T07:06:51.907Z,55.81
2018-04-22T07:09:20.355Z,55.55
2018-04-22T07:11:48.483Z,55.00
2018-04-22T07:14:16.607Z,54.37
2018-04-22T07:26:30.117Z,52.00
2018-04-22T07:28:58.213Z,51.92
2018-04-22T07:31:26.334Z,51.04
2018-04-22T07:33:54.456Z,51.33
2018-04-22T07:36:22.596Z,51.44
2018-04-22T07:38:50.795Z,50.54
2018-04-22T07:41:19.607Z,50.74
2018-04-22T07:43:47.712Z,50.85
2018-04-22T07:46:15.833Z,50.85
2018-04-22T07:48:43.915Z,50.66
2018-04-22T07:51:12.042Z,50.25
2018-04-22T07:53:40.160Z,50.78
2018-04-22T07:56:08.256Z,50.22
2018-04-22T07:58:36.381Z,49.72
2018-04-22T08:01:04.453Z,49.76
2018-04-22T08:03:32.617Z,50.22
2018-04-22T08:06:00.737Z,50.82
2018-04-22T08:08:29.436Z,50.10
2018-04-22T08:10:58.567Z,49.86
2018-04-22T08:13:27.158Z,50.49
2018-04-22T08:15:55.254Z,50.26
2018-04-22T08:18:23.351Z,50.68
2018-04-22T08:33:51.526Z,49.83
2018-04-22T08:36:19.563Z,49.64
2018-04-22T08:38:47.650Z,49.91
2018-04-22T08:41:15.752Z,50.86
2018-04-22T08:43:44.783Z,51.35
2018-04-22T08:46:12.928Z,51.76
2018-04-22T08:48:41.059Z,51.92
2018-04-22T08:51:09.147Z,51.76
2018-04-22T08:53:37.245Z,51.69
2018-04-22T08:56:05.361Z,52.25
2018-04-22T08:58:33.461Z,51.67
2018-04-22T09:01:01.546Z,51.98
2018-04-22T09:03:29.656Z,51.69
2018-04-22T09:05:57.777Z,52.18
2018-04-22T09:08:26.416Z,52.24
2018-04-22T09:10:54.536Z,52.12
2018-04-22T09:13:23.061Z,53.24
2018-04-22T09:15:51.823Z,53.50
2018-04-22T09:18:19.919Z,53.94
2018-04-22T09:20:48.036Z,53.43
2018-04-22T09:23:16.135Z,54.12
2018-04-22T09:25:44.222Z,53.98
2018-04-22T09:28:13.202Z,54.00
2018-04-22T09:30:42.119Z,53.93
2018-04-22T09:33:10.251Z,54.34
2018-04-22T09:35:38.467Z,54.85
2018-04-22T09:38:06.563Z,55.09
2018-04-22T09:40:34.672Z,56.34
2018-04-22T09:43:02.842Z,56.49
2018-04-22T09:45:36.687Z,58.90
2018-04-22T09:48:10.449Z,58.41
2018-04-22T09:50:38.808Z,58.44
2018-04-22T09:53:06.896Z,62.45
2018-04-22T09:55:35.002Z,63.79
2018-04-22T09:58:03.101Z,64.62
2018-04-22T10:00:32.117Z,63.77
2018-04-22T10:03:06.430Z,65.10
2018-04-22T10:05:40.049Z,64.35
2018-04-22T10:08:08.147Z,64.39
2018-04-22T10:10:37.135Z,64.84
2018-04-22T10:13:05.204Z,64.77
2018-04-22T10:15:33.287Z,64.91
2018-04-22T10:18:02.208Z,64.74
2018-04-22T10:20:30.313Z,64.73
2018-04-22T10:22:58.404Z,63.34
2018-04-22T10:25:26.495Z,65.18
2018-04-22T10:27:55.536Z,62.78
2018-04-22T10:30:23.986Z,63.53
2018-04-22T10:32:52.743Z,61.20
2018-04-22T10:35:20.839Z,59.07
2018-04-22T10:37:48.963Z,57.92
2018-04-22T10:40:17.057Z,53.75
2018-04-22T10:42:45.188Z,53.70
2018-04-22T10:45:13.331Z,52.65
2018-04-22T10:47:41.460Z,52.57
2018-04-22T10:50:09.552Z,51.77
2018-04-22T10:52:37.649Z,52.34
2018-04-22T10:55:05.765Z,51.18
2018-04-22T10:57:33.859Z,50.43
2018-04-22T11:00:01.991Z,50.51
2018-04-22T11:02:30.079Z,50.75
2018-04-22T11:17:59.002Z,43.60
2018-04-22T11:20:27.141Z,41.77
2018-04-22T11:22:55.269Z,40.96
2018-04-22T11:25:23.361Z,40.42
2018-04-22T11:27:51.461Z,40.38
2018-04-22T11:30:20.943Z,41.15
2018-04-22T11:32:49.067Z,41.77
2018-04-22T11:35:17.879Z,41.16
2018-04-22T11:37:45.979Z,39.91
2018-04-22T11:40:14.091Z,40.46
2018-04-22T11:42:42.195Z,41.38
2018-04-22T11:45:10.327Z,41.64
2018-04-22T11:47:38.450Z,42.14
2018-04-22T11:50:06.877Z,41.54
2018-04-22T11:52:35.851Z,42.34
2018-04-22T11:55:04.183Z,42.43
2018-04-22T11:57:32.291Z,42.77
2018-04-22T12:00:01.832Z,42.14
2018-04-22T12:02:29.964Z,42.40
2018-04-22T12:04:58.122Z,41.94
2018-04-22T12:07:26.195Z,41.68
2018-04-22T12:09:54.301Z,41.45
2018-04-22T12:12:23.173Z,41.24
2018-04-22T12:14:51.278Z,42.71
2018-04-22T12:17:19.683Z,42.83
2018-04-22T12:19:47.773Z,42.68
2018-04-22T12:22:15.899Z,42.49
2018-04-22T12:24:44.303Z,42.06
2018-04-22T12:27:12.396Z,42.79
2018-04-22T12:29:41.315Z,41.57
2018-04-22T12:32:10.048Z,41.32
2018-04-22T12:34:38.157Z,41.46
2018-04-22T12:37:06.462Z,41.04
2018-04-22T12:39:34.560Z,40.78
2018-04-22T12:42:02.651Z,40.94
2018-04-22T12:44:30.756Z,42.23
2018-04-22T12:46:59.899Z,41.82
2018-04-22T12:49:28.095Z,41.39
2018-04-22T12:51:56.547Z,40.04
2018-04-22T12:54:24.641Z,40.17
2018-04-22T12:56:52.787Z,38.53
2018-04-22T12:59:20.932Z,38.31
2018-04-22T13:01:48.977Z,38.63
2018-04-22T13:04:17.792Z,38.81
2018-04-22T13:06:45.904Z,38.70
2018-04-22T13:09:18.964Z,38.97
2018-04-22T13:11:47.387Z,39.20
2018-04-22T13:14:15.483Z,39.51
2018-04-22T13:16:43.579Z,39.62
2018-04-22T13:19:12.083Z,40.14
2018-04-22T13:21:40.485Z,40.22
2018-04-22T13:24:08.563Z,39.96
2018-04-22T13:26:36.675Z,40.68
2018-04-22T13:29:04.789Z,40.70
2018-04-22T13:31:32.879Z,41.63
2018-04-22T13:34:01.012Z,41.21
2018-04-22T13:36:29.094Z,41.87
2018-04-22T13:38:57.237Z,42.07
2018-04-22T13:41:25.328Z,42.93
2018-04-22T13:43:53.436Z,43.03
2018-04-22T13:46:22.156Z,42.86
2018-04-22T13:48:50.718Z,42.84
2018-04-22T13:51:19.276Z,42.77
2018-04-22T13:53:47.348Z,42.97
2018-04-22T13:56:15.451Z,43.30
2018-04-22T13:58:43.840Z,43.53
2018-04-22T14:01:11.942Z,43.69
2018-04-22T14:03:41.029Z,44.13
2018-04-22T14:06:09.231Z,43.35
2018-04-22T14:08:37.537Z,43.73
2018-04-22T14:11:05.667Z,43.18
2018-04-22T14:13:33.803Z,43.09
2018-04-22T14:16:02.160Z,44.11
2018-04-22T14:18:30.262Z,44.49
2018-04-22T14:20:58.382Z,44.61
2018-04-22T14:23:27.270Z,44.97
2018-04-22T14:26:01.226Z,45.59
2018-04-22T14:28:29.557Z,46.00
2018-04-22T14:30:59.064Z,46.21
2018-04-22T14:33:27.174Z,45.93
2018-04-22T14:35:55.320Z,45.79
2018-04-22T14:38:23.396Z,46.21
2018-04-22T14:40:57.985Z,46.11
2018-04-22T14:43:31.781Z,45.46
2018-04-22T14:46:18.498Z,44.09
2018-04-22T14:48:58.495Z,43.18
2018-04-22T14:51:26.597Z,42.63
2018-04-22T14:53:55.540Z,42.82
2018-04-22T14:56:23.644Z,43.04
2018-04-22T14:58:51.727Z,42.40
2018-04-22T15:01:20.117Z,42.41
2018-04-22T15:03:48.224Z,42.94
2018-04-22T15:06:21.743Z,43.31
2018-04-22T15:08:50.475Z,43.93
2018-04-22T15:11:18.562Z,43.90
2018-04-22T15:13:47.652Z,44.66
2018-04-22T15:16:15.772Z,44.57
2018-04-22T15:18:43.869Z,44.89
2018-04-22T15:21:11.981Z,45.10
2018-04-22T15:23:40.411Z,45.30
2018-04-22T15:26:08.503Z,45.85
2018-04-22T15:28:36.631Z,46.51
2018-04-22T15:31:04.774Z,46.90
2018-04-22T15:33:33.263Z,47.30
2018-04-22T15:36:01.385Z,47.45
2018-04-22T15:38:29.575Z,48.56
2018-04-22T15:40:57.649Z,48.74
2018-04-22T15:43:25.780Z,48.80
2018-04-22T15:45:53.864Z,48.47
2018-04-22T15:48:21.982Z,47.10
2018-04-22T15:50:50.099Z,46.30
2018-04-22T15:53:18.217Z,46.26
2018-04-22T15:55:51.884Z,46.15
2018-04-22T15:58:25.542Z,46.38
2018-04-22T16:00:54.402Z,46.47
2018-04-22T16:03:22.506Z,46.63
2018-04-22T16:05:51.224Z,46.51
2018-04-22T16:08:20.064Z,46.75
2018-04-22T16:10:48.158Z,46.49
2018-04-22T16:13:17.120Z,46.71
2018-04-22T16:15:45.560Z,46.57
2018-04-22T16:18:14.178Z,46.62
2018-04-22T16:20:42.288Z,46.54
2018-04-22T16:23:10.918Z,45.61
2018-04-22T16:25:39.826Z,44.45
2018-04-22T16:28:07.936Z,42.70
2018-04-22T16:30:36.073Z,40.08
2018-04-22T16:33:04.504Z,38.79
2018-04-22T16:35:32.659Z,39.13
2018-04-22T16:38:00.711Z,38.01
2018-04-22T16:40:28.859Z,36.34
2018-04-22T16:42:57.835Z,35.98
2018-04-22T16:45:25.910Z,36.02
2018-04-22T16:47:54.361Z,36.17
2018-04-22T16:50:22.459Z,36.22
2018-04-22T16:52:50.551Z,35.56
2018-04-22T16:55:18.680Z,35.84
2018-04-22T16:57:47.664Z,34.72
2018-04-22T17:00:16.452Z,33.59
2018-04-22T17:02:44.591Z,33.89
2018-04-22T17:05:12.704Z,33.75
2018-04-22T17:07:46.345Z,34.04
2018-04-22T17:10:15.281Z,33.85
2018-04-22T17:12:43.407Z,34.18
2018-04-22T17:15:12.135Z,34.55
2018-04-22T17:17:40.279Z,34.76
2018-04-22T17:20:08.408Z,35.40
2018-04-22T17:22:37.306Z,35.54
2018-04-22T17:25:05.403Z,35.68
2018-04-22T17:27:33.518Z,35.80
2018-04-22T17:30:01.608Z,36.02
2018-04-22T17:32:29.706Z,36.15
2018-04-22T17:34:57.809Z,36.46
2018-04-22T17:37:25.891Z,36.31
2018-04-22T17:39:53.983Z,36.37
2018-04-22T17:42:22.133Z,36.72
2018-04-22T17:44:50.207Z,36.74
2018-04-22T17:47:18.945Z,36.95
2018-04-22T17:49:47.379Z,37.04
2018-04-22T17:52:15.479Z,37.33
2018-04-22T17:54:44.272Z,37.32
2018-04-22T17:57:12.994Z,37.67
2018-04-22T17:59:41.949Z,38.12
2018-04-22T18:02:10.118Z,37.96
2018-04-22T18:04:38.244Z,38.01
2018-04-22T18:07:06.343Z,37.69
2018-04-22T18:09:34.433Z,37.98
2018-04-22T18:12:03.119Z,37.93
2018-04-22T18:14:32.124Z,38.04
2018-04-22T18:17:00.824Z,38.17
2018-04-22T18:19:30.422Z,38.48
2018-04-22T18:22:03.862Z,38.64
2018-04-22T18:24:31.960Z,38.89
2018-04-22T18:27:00.041Z,39.26
2018-04-22T18:29:28.805Z,39.42
2018-04-22T18:31:56.895Z,39.99
2018-04-22T18:34:24.992Z,40.44
2018-04-22T18:36:53.147Z,40.73
2018-04-22T18:39:21.237Z,41.30
2018-04-22T18:41:49.375Z,41.60
2018-04-22T18:44:17.504Z,42.08
2018-04-22T18:46:45.649Z,42.02
2018-04-22T18:49:13.744Z,42.08
2018-04-22T18:51:41.975Z,42.10
2018-04-22T18:54:10.066Z,42.27
2018-04-22T18:56:38.318Z,42.38
2018-04-22T18:59:06.425Z,42.38
2018-04-22T19:01:34.566Z,42.31
2018-04-22T19:04:02.720Z,41.96
2018-04-22T19:06:31.586Z,41.94
2018-04-22T19:08:59.688Z,41.92
2018-04-22T19:11:28.755Z,42.32
2018-04-22T19:13:57.147Z,42.33
2018-04-22T19:16:25.292Z,42.99
2018-04-22T19:18:53.378Z,43.26
2018-04-22T19:21:21.495Z,43.67
2018-04-22T19:23:49.590Z,44.29
2018-04-22T19:26:17.721Z,44.68
2018-04-22T19:28:45.873Z,44.69
2018-04-22T19:31:13.942Z,44.22
2018-04-22T19:33:42.287Z,43.70
2018-04-22T19:36:10.404Z,43.31
2018-04-22T19:38:38.471Z,43.36
2018-04-22T19:41:06.577Z,43.22
2018-04-22T19:43:34.696Z,43.41
2018-04-22T19:46:02.787Z,43.60
2018-04-22T19:48:30.897Z,43.63
2018-04-22T19:50:59.372Z,43.99
2018-04-22T19:53:27.449Z,44.12
2018-04-22T19:55:55.601Z,44.84
2018-04-22T19:58:23.726Z,45.13
2018-04-22T20:00:51.810Z,45.46
2018-04-22T20:03:20.794Z,45.99
2018-04-22T20:05:49.476Z,46.24
2018-04-22T20:08:17.569Z,46.54
2018-04-22T20:10:45.685Z,46.83
2018-04-22T20:13:14.584Z,46.99
2018-04-22T20:15:42.687Z,47.04
2018-04-22T20:18:11.532Z,47.38
2018-04-22T20:20:40.546Z,47.54
2018-04-22T20:23:09.275Z,47.51
2018-04-22T20:25:37.428Z,47.48
2018-04-22T20:28:05.530Z,47.50
2018-04-22T20:30:33.689Z,47.75
2018-04-22T20:33:01.791Z,47.66
2018-04-22T20:35:29.903Z,47.34
2018-04-22T20:37:58.284Z,47.19
2018-04-22T20:40:26.400Z,47.15
2018-04-22T20:42:55.142Z,47.00
2018-04-22T20:45:24.176Z,46.97
2018-04-22T20:47:52.268Z,47.15
2018-04-22T20:50:20.346Z,47.44
2018-04-22T20:52:49.692Z,47.67
2018-04-22T20:55:17.884Z,47.85
2018-04-22T20:57:46.339Z,47.54
2018-04-22T21:00:15.410Z,47.50
2018-04-22T21:02:45.231Z,47.49
2018-04-22T21:05:15.036Z,47.59
2018-04-22T21:07:43.110Z,47.72
2018-04-22T21:10:11.502Z,47.82
2018-04-22T21:12:40.621Z,47.62
2018-04-22T21:15:08.700Z,47.59
2018-04-22T21:17:36.822Z,47.41
2018-04-22T21:20:09.954Z,47.23
2018-04-22T21:22:38.843Z,47.08
2018-04-22T21:25:06.967Z,46.84
2018-04-22T21:30:14.447Z,46.85
2018-04-22T21:32:42.531Z,46.84
2018-04-22T21:35:10.823Z,46.60
2018-04-22T21:37:38.935Z,46.79
2018-04-22T21:40:08.559Z,47.07
2018-04-22T21:42:37.376Z,47.32
2018-04-22T21:45:05.494Z,47.39
2018-04-22T21:47:39.799Z,47.60
2018-04-22T21:50:07.898Z,47.65
2018-04-22T21:52:36.015Z,48.35
2018-04-22T21:55:04.099Z,48.58
2018-04-22T21:57:32.203Z,49.20
2018-04-22T22:00:00.295Z,49.52
2018-04-22T22:02:28.411Z,49.88
2018-04-22T22:04:56.507Z,49.81
2018-04-22T22:07:24.583Z,50.41
2018-04-22T22:09:52.684Z,50.63
2018-04-22T22:12:20.772Z,50.78
2018-04-22T22:14:48.871Z,51.21
2018-04-22T22:17:16.985Z,51.54
2018-04-22T22:19:46.003Z,51.85
2018-04-22T22:22:19.531Z,51.70
2018-04-22T22:24:47.623Z,51.84
2018-04-22T22:27:15.721Z,51.86
2018-04-22T22:29:43.847Z,51.80
2018-04-22T22:32:11.943Z,51.35
2018-04-22T22:34:40.031Z,50.45
2018-04-22T22:37:08.139Z,49.87
2018-04-22T22:39:36.242Z,49.79
2018-04-22T22:42:04.913Z,48.37
2018-04-22T22:44:33.731Z,47.09
2018-04-22T22:47:02.599Z,45.91
2018-04-22T22:49:31.063Z,46.63
2018-04-22T22:51:59.149Z,47.25
2018-04-22T22:54:27.249Z,48.07
2018-04-22T22:56:56.611Z,47.87
2018-04-22T22:59:24.707Z,47.92
2018-04-22T23:01:52.779Z,47.65
2018-04-22T23:04:20.944Z,47.51
2018-04-22T23:06:49.003Z,48.63
2018-04-22T23:09:17.175Z,48.32
2018-04-22T23:11:45.262Z,47.49
2018-04-22T23:14:13.355Z,46.53
2018-04-22T23:16:41.475Z,46.14
2018-04-22T23:19:15.145Z,45.74
2018-04-22T23:21:43.959Z,45.64
2018-04-22T23:24:12.367Z,45.68
2018-04-22T23:26:40.418Z,45.65
2018-04-22T23:29:08.573Z,45.66
2018-04-22T23:31:36.647Z,46.08
2018-04-22T23:34:04.728Z,46.00
2018-04-22T23:36:32.817Z,46.07
2018-04-22T23:39:00.940Z,46.51
2018-04-22T23:41:29.027Z,46.55
2018-04-22T23:43:57.139Z,46.58
2018-04-22T23:46:25.226Z,46.37
2018-04-22T23:48:53.306Z,46.98
